Time;durP1;ratioP1;P1;durP2;ratioP2;P2;SDS_P1;SDS_P2;PMS_P1;PMS_P2;Temp;Humidity;BMP_temperature;BMP_pressure;BME280_temperature;BME280_humidity;BME280_pressure;Samples;Min_cycle;Max_cycle;Signal;HPM_P1;HPM_P2
2023/09/09 00:00:39;;;;;;;3.23;2.07;;;;;;;;;;5044475;28;20037;-61
2023/09/09 00:03:04;;;;;;;2.42;1.83;;;;;;;;;;5045747;28;20943;-62
2023/09/09 00:05:29;;;;;;;2.47;1.95;;;;;;;;;;5045265;28;20056;-61
2023/09/09 00:07:55;;;;;;;2.90;2.00;;;;;;;;;;5045795;28;20025;-62
2023/09/09 00:10:20;;;;;;;4.70;2.00;;;;;;;;;;5040928;28;20033;-62
2023/09/09 00:12:45;;;;;;;3.90;2.20;;;;;;;;;;5039036;28;20028;-62
2023/09/09 00:15:10;;;;;;;2.77;1.90;;;;;;;;;;5045764;28;20259;-63
2023/09/09 00:17:36;;;;;;;3.05;1.92;;;;;;;;;;5041082;28;20315;-63
2023/09/09 00:20:01;;;;;;;2.70;1.90;;;;;;;;;;5039273;28;20033;-62
2023/09/09 00:22:26;;;;;;;3.73;2.13;;;;;;;;;;5036514;28;20013;-62
2023/09/09 00:24:51;;;;;;;2.70;2.10;;;;;;;;;;5033594;28;20853;-62
2023/09/09 00:27:16;;;;;;;3.23;1.90;;;;;;;;;;5046050;28;20251;-62
2023/09/09 00:29:42;;;;;;;2.93;2.00;;;;;;;;;;5045098;28;20259;-62
2023/09/09 00:32:07;;;;;;;4.73;2.20;;;;;;;;;;5046214;28;20027;-63
2023/09/09 00:34:33;;;;;;;2.50;1.93;;;;;;;;;;5042924;28;20021;-63
2023/09/09 00:36:58;;;;;;;2.63;2.03;;;;;;;;;;5044007;28;20040;-62
2023/09/09 00:39:23;;;;;;;2.47;1.80;;;;;;;;;;5046473;28;20114;-63
2023/09/09 00:41:49;;;;;;;3.10;2.00;;;;;;;;;;5046107;28;20071;-63
2023/09/09 00:44:14;;;;;;;3.37;2.00;;;;;;;;;;5044615;28;20016;-62
2023/09/09 00:46:39;;;;;;;2.90;2.40;;;;;;;;;;5037866;28;20260;-62
2023/09/09 00:49:04;;;;;;;2.63;2.13;;;;;;;;;;5046167;28;20012;-63
2023/09/09 00:51:30;;;;;;;3.23;2.30;;;;;;;;;;5034538;28;20026;-62
2023/09/09 00:53:55;;;;;;;4.13;1.88;;;;;;;;;;5024948;28;20025;-62
2023/09/09 00:56:21;;;;;;;2.80;2.03;;;;;;;;;;5044645;28;20698;-63
2023/09/09 00:58:46;;;;;;;3.13;2.00;;;;;;;;;;5044374;28;20287;-62
2023/09/09 01:01:12;;;;;;;2.72;1.95;;;;;;;;;;5045242;28;20774;-62
2023/09/09 01:03:37;;;;;;;3.30;2.10;;;;;;;;;;5027622;28;20005;-62
2023/09/09 01:06:02;;;;;;;3.00;2.00;;;;;;;;;;5041232;28;20474;-63
2023/09/09 01:08:28;;;;;;;2.72;2.15;;;;;;;;;;5044857;28;20255;-63
2023/09/09 01:10:53;;;;;;;2.47;1.90;;;;;;;;;;5043802;28;20075;-63
2023/09/09 01:13:19;;;;;;;3.33;2.15;;;;;;;;;;5043554;28;20060;-63
2023/09/09 01:15:44;;;;;;;3.45;2.00;;;;;;;;;;5039552;28;20024;-62
2023/09/09 01:18:09;;;;;;;2.90;1.90;;;;;;;;;;5044013;28;20035;-63
2023/09/09 01:20:35;;;;;;;2.73;2.00;;;;;;;;;;5038075;28;20017;-63
2023/09/09 01:23:01;;;;;;;2.85;1.85;;;;;;;;;;5043778;28;20467;-63
2023/09/09 01:25:26;;;;;;;4.10;2.20;;;;;;;;;;5023875;28;20032;-64
2023/09/09 01:27:51;;;;;;;3.70;2.47;;;;;;;;;;5040848;28;20251;-64
2023/09/09 01:30:16;;;;;;;2.57;1.97;;;;;;;;;;5043747;28;20270;-63
2023/09/09 01:32:42;;;;;;;2.88;2.05;;;;;;;;;;5044760;28;20259;-62
2023/09/09 01:35:08;;;;;;;2.53;1.83;;;;;;;;;;5044920;28;20020;-63
2023/09/09 01:37:33;;;;;;;2.50;2.00;;;;;;;;;;5043656;28;20017;-63
2023/09/09 01:40:04;;;;;;;3.47;2.45;;;;;;;;;;5043580;28;20441;-62
2023/09/09 01:42:30;;;;;;;2.42;2.00;;;;;;;;;;5039952;28;20453;-62
2023/09/09 01:44:55;;;;;;;3.30;2.03;;;;;;;;;;5044494;28;20033;-63
2023/09/09 01:47:20;;;;;;;2.70;1.98;;;;;;;;;;5043633;28;20450;-62
2023/09/09 01:49:45;;;;;;;2.63;1.90;;;;;;;;;;5030209;28;20025;-62
2023/09/09 01:52:11;;;;;;;3.00;2.20;;;;;;;;;;5044245;28;20021;-64
2023/09/09 01:54:36;;;;;;;2.67;2.07;;;;;;;;;;5047688;28;20017;-64
2023/09/09 01:57:02;;;;;;;2.90;2.00;;;;;;;;;;5048967;28;20302;-63
2023/09/09 01:59:27;;;;;;;3.63;2.13;;;;;;;;;;5047416;28;20283;-63
2023/09/09 02:01:52;;;;;;;2.50;1.83;;;;;;;;;;5043729;28;20047;-63
2023/09/09 02:04:18;;;;;;;3.13;2.20;;;;;;;;;;5044412;28;20268;-64
2023/09/09 02:06:44;;;;;;;2.83;2.03;;;;;;;;;;5047330;28;20536;-62
2023/09/09 02:09:09;;;;;;;2.72;2.20;;;;;;;;;;5046793;28;20276;-63
2023/09/09 02:11:35;;;;;;;3.83;2.25;;;;;;;;;;5036309;28;20521;-62
2023/09/09 02:14:00;;;;;;;2.47;1.80;;;;;;;;;;5029022;28;20539;-62
2023/09/09 02:16:25;;;;;;;3.10;2.30;;;;;;;;;;5042002;28;20465;-62
2023/09/09 02:18:50;;;;;;;3.43;2.13;;;;;;;;;;5048398;28;20570;-62
2023/09/09 02:21:15;;;;;;;3.03;2.03;;;;;;;;;;5047118;28;20496;-62
2023/09/09 02:23:41;;;;;;;2.47;1.90;;;;;;;;;;5048869;28;20568;-63
2023/09/09 02:26:08;;;;;;;2.58;2.03;;;;;;;;;;5047118;28;20562;-61
2023/09/09 02:28:33;;;;;;;2.80;2.00;;;;;;;;;;5043885;28;20124;-64
2023/09/09 02:31:00;;;;;;;2.70;2.08;;;;;;;;;;5048300;28;20234;-62
2023/09/09 02:33:25;;;;;;;3.47;2.08;;;;;;;;;;5048819;28;20037;-63
2023/09/09 02:35:50;;;;;;;3.77;2.20;;;;;;;;;;5048378;28;20032;-65
2023/09/09 02:38:15;;;;;;;3.10;2.17;;;;;;;;;;5047872;28;20044;-64
2023/09/09 02:40:40;;;;;;;2.83;2.00;;;;;;;;;;5041938;28;20085;-63
2023/09/09 02:43:06;;;;;;;2.27;1.70;;;;;;;;;;5047942;28;20025;-64
2023/09/09 02:45:31;;;;;;;2.60;2.00;;;;;;;;;;5046625;28;20271;-64
2023/09/09 02:47:56;;;;;;;3.13;2.03;;;;;;;;;;5047381;28;20029;-62
2023/09/09 02:50:21;;;;;;;3.97;2.40;;;;;;;;;;5047971;28;20103;-63
2023/09/09 02:52:50;;;;;;;3.00;2.10;;;;;;;;;;5046621;28;20049;-64
2023/09/09 02:55:15;;;;;;;3.20;2.10;;;;;;;;;;5048314;28;20338;-64
2023/09/09 02:57:40;;;;;;;2.83;1.98;;;;;;;;;;5047411;28;20032;-64
2023/09/09 03:00:07;;;;;;;3.20;1.90;;;;;;;;;;5046409;28;20041;-63
2023/09/09 03:02:32;;;;;;;2.90;2.08;;;;;;;;;;5042571;28;20778;-63
2023/09/09 03:04:58;;;;;;;3.25;2.05;;;;;;;;;;5026355;28;20113;-63
2023/09/09 03:07:23;;;;;;;2.85;2.00;;;;;;;;;;5045063;28;20065;-63
2023/09/09 03:09:48;;;;;;;2.43;1.93;;;;;;;;;;5045496;28;20105;-62
2023/09/09 03:12:20;;;;;;;3.50;2.40;;;;;;;;;;5042321;28;20049;-62
2023/09/09 03:14:47;;;;;;;3.33;2.20;;;;;;;;;;5047510;28;20271;-62
2023/09/09 03:17:12;;;;;;;2.75;2.20;;;;;;;;;;5047083;28;20074;-64
2023/09/09 03:19:37;;;;;;;3.20;2.33;;;;;;;;;;5045747;28;20064;-64
2023/09/09 03:22:03;;;;;;;3.10;1.92;;;;;;;;;;5047341;28;20275;-63
2023/09/09 03:24:28;;;;;;;3.25;2.20;;;;;;;;;;5046325;28;20033;-64
2023/09/09 03:26:53;;;;;;;2.90;2.00;;;;;;;;;;5048418;28;20067;-63
2023/09/09 03:29:19;;;;;;;2.63;2.00;;;;;;;;;;5049286;28;20036;-62
2023/09/09 03:31:44;;;;;;;3.00;1.90;;;;;;;;;;5049020;28;20094;-64
2023/09/09 03:34:09;;;;;;;3.30;2.00;;;;;;;;;;5048285;28;20564;-63
2023/09/09 03:36:34;;;;;;;2.93;2.10;;;;;;;;;;5047445;28;20417;-63
2023/09/09 03:39:03;;;;;;;2.27;2.07;;;;;;;;;;5046659;28;20288;-62
2023/09/09 03:41:28;;;;;;;3.15;2.33;;;;;;;;;;5047138;28;20021;-63
2023/09/09 03:43:53;;;;;;;2.70;2.10;;;;;;;;;;5048656;28;20480;-62
2023/09/09 03:46:18;;;;;;;2.67;2.00;;;;;;;;;;5047461;28;20469;-62
2023/09/09 03:48:44;;;;;;;2.63;2.20;;;;;;;;;;5046622;28;20491;-62
2023/09/09 03:51:09;;;;;;;3.47;2.30;;;;;;;;;;5040507;28;20466;-64
2023/09/09 03:53:34;;;;;;;2.87;2.07;;;;;;;;;;5027957;28;20037;-62
2023/09/09 03:56:00;;;;;;;3.27;2.10;;;;;;;;;;5045342;28;20816;-62
2023/09/09 03:58:26;;;;;;;2.58;2.05;;;;;;;;;;5045218;28;20102;-62
2023/09/09 04:01:07;;;;;;;3.17;2.05;;;;;;;;;;5040393;28;20045;-62
2023/09/09 04:03:34;;;;;;;3.30;2.50;;;;;;;;;;5024597;28;20046;-62
2023/09/09 04:06:00;;;;;;;3.35;2.53;;;;;;;;;;5027192;28;20048;-63
2023/09/09 04:08:28;;;;;;;2.97;2.25;;;;;;;;;;5044700;28;20029;-63
2023/09/09 04:10:53;;;;;;;3.50;2.30;;;;;;;;;;5046399;28;20060;-63
2023/09/09 04:13:18;;;;;;;2.53;2.20;;;;;;;;;;5042663;28;20489;-63
2023/09/09 04:15:44;;;;;;;3.03;2.30;;;;;;;;;;5044586;28;20318;-63
2023/09/09 04:18:09;;;;;;;3.30;2.30;;;;;;;;;;5045994;28;20021;-62
2023/09/09 04:20:34;;;;;;;3.33;2.20;;;;;;;;;;5032984;28;20459;-64
2023/09/09 04:22:59;;;;;;;3.30;2.50;;;;;;;;;;5038837;28;20268;-63
2023/09/09 04:25:24;;;;;;;3.20;2.40;;;;;;;;;;5045227;28;20325;-61
2023/09/09 04:27:50;;;;;;;3.13;2.50;;;;;;;;;;5046110;28;20563;-62
2023/09/09 04:30:15;;;;;;;2.30;2.00;;;;;;;;;;5046443;28;20489;-64
2023/09/09 04:32:40;;;;;;;2.63;2.07;;;;;;;;;;5042072;28;20044;-63
2023/09/09 04:35:05;;;;;;;3.90;2.33;;;;;;;;;;5046173;28;20608;-62
2023/09/09 04:37:31;;;;;;;2.97;2.35;;;;;;;;;;5044625;28;20486;-62
2023/09/09 04:39:56;;;;;;;3.40;2.00;;;;;;;;;;5043821;28;20044;-63
2023/09/09 04:42:22;;;;;;;3.05;2.30;;;;;;;;;;5027941;28;20036;-64
2023/09/09 04:44:47;;;;;;;2.80;2.20;;;;;;;;;;5040934;28;20084;-62
2023/09/09 04:47:12;;;;;;;3.40;2.40;;;;;;;;;;5034369;28;20266;-62
2023/09/09 04:49:37;;;;;;;2.67;2.20;;;;;;;;;;5027739;28;20029;-64
2023/09/09 04:52:03;;;;;;;2.87;2.40;;;;;;;;;;5045736;28;20029;-62
2023/09/09 04:54:28;;;;;;;3.38;2.30;;;;;;;;;;5045920;28;20276;-62
2023/09/09 04:56:53;;;;;;;2.80;2.10;;;;;;;;;;5045437;28;20032;-64
2023/09/09 04:59:20;;;;;;;3.33;2.50;;;;;;;;;;5045747;28;20300;-62
2023/09/09 05:01:45;;;;;;;3.13;2.50;;;;;;;;;;5045198;28;20037;-62
2023/09/09 05:04:10;;;;;;;2.83;2.33;;;;;;;;;;5045606;28;20049;-62
2023/09/09 05:06:35;;;;;;;2.77;2.37;;;;;;;;;;5045464;28;20025;-63
2023/09/09 05:09:01;;;;;;;3.10;2.50;;;;;;;;;;5045769;28;20025;-64
2023/09/09 05:11:26;;;;;;;3.20;2.53;;;;;;;;;;5043953;28;20124;-61
2023/09/09 05:13:51;;;;;;;3.40;2.63;;;;;;;;;;5032303;28;20272;-63
2023/09/09 05:16:16;;;;;;;3.60;2.70;;;;;;;;;;5024344;28;20087;-61
2023/09/09 05:18:41;;;;;;;3.23;2.30;;;;;;;;;;5042278;28;20204;-62
2023/09/09 05:21:07;;;;;;;4.47;2.70;;;;;;;;;;5045147;28;20039;-61
2023/09/09 05:23:33;;;;;;;3.13;2.60;;;;;;;;;;5045095;28;20553;-62
2023/09/09 05:25:58;;;;;;;3.60;2.72;;;;;;;;;;5043641;28;20517;-61
2023/09/09 05:28:23;;;;;;;3.00;2.23;;;;;;;;;;5045266;28;20033;-64
2023/09/09 05:30:48;;;;;;;2.80;2.27;;;;;;;;;;5043944;28;20037;-62
2023/09/09 05:33:13;;;;;;;4.10;2.53;;;;;;;;;;5044881;28;20143;-62
2023/09/09 05:35:39;;;;;;;3.03;2.60;;;;;;;;;;5043497;28;20354;-64
2023/09/09 05:38:04;;;;;;;2.57;2.33;;;;;;;;;;5045084;28;20064;-63
2023/09/09 05:40:29;;;;;;;3.40;2.70;;;;;;;;;;5041118;28;20410;-64
2023/09/09 05:42:54;;;;;;;3.00;2.37;;;;;;;;;;5030036;28;20033;-63
2023/09/09 05:45:19;;;;;;;4.13;3.00;;;;;;;;;;5045078;28;20037;-62
2023/09/09 05:47:45;;;;;;;3.20;2.40;;;;;;;;;;5023677;28;20033;-64
2023/09/09 05:50:11;;;;;;;3.85;3.25;;;;;;;;;;5040141;28;20774;-64
2023/09/09 05:52:36;;;;;;;3.75;2.38;;;;;;;;;;5044627;28;20049;-62
2023/09/09 05:55:02;;;;;;;3.88;2.78;;;;;;;;;;5043812;28;20079;-62
2023/09/09 05:57:27;;;;;;;3.40;2.57;;;;;;;;;;5044775;28;20091;-63
2023/09/09 05:59:52;;;;;;;2.80;2.33;;;;;;;;;;5026352;28;20276;-62
2023/09/09 06:02:17;;;;;;;3.47;2.50;;;;;;;;;;5039660;28;20636;-62
2023/09/09 06:04:43;;;;;;;4.07;2.67;;;;;;;;;;5042480;28;20521;-63
2023/09/09 06:07:08;;;;;;;3.43;2.77;;;;;;;;;;5043319;28;20271;-63
2023/09/09 06:09:33;;;;;;;3.17;2.17;;;;;;;;;;5025314;28;20374;-63
2023/09/09 06:11:58;;;;;;;3.70;2.47;;;;;;;;;;5032350;28;20679;-62
2023/09/09 06:14:24;;;;;;;3.10;2.40;;;;;;;;;;5039947;28;20559;-62
2023/09/09 06:16:49;;;;;;;3.83;2.50;;;;;;;;;;5025755;28;20272;-62
2023/09/09 06:19:14;;;;;;;3.47;2.60;;;;;;;;;;5041384;28;20394;-63
2023/09/09 06:21:39;;;;;;;3.63;2.30;;;;;;;;;;5044277;28;20499;-63
2023/09/09 06:24:06;;;;;;;3.13;2.20;;;;;;;;;;5044696;28;20057;-63
2023/09/09 06:26:33;;;;;;;3.28;2.30;;;;;;;;;;5044472;28;20029;-62
2023/09/09 06:28:59;;;;;;;3.22;2.22;;;;;;;;;;5040741;28;20043;-61
2023/09/09 06:31:24;;;;;;;4.05;2.53;;;;;;;;;;5044388;28;20120;-62
2023/09/09 06:33:49;;;;;;;3.27;2.37;;;;;;;;;;5043097;28;20037;-64
2023/09/09 06:36:16;;;;;;;3.57;2.43;;;;;;;;;;5046429;28;20354;-61
2023/09/09 06:38:41;;;;;;;3.28;2.35;;;;;;;;;;5046423;28;20299;-62
2023/09/09 06:41:07;;;;;;;3.53;2.70;;;;;;;;;;5047439;28;20142;-62
2023/09/09 06:43:32;;;;;;;3.13;2.50;;;;;;;;;;5048366;28;20356;-63
2023/09/09 06:45:59;;;;;;;2.77;2.47;;;;;;;;;;5039458;28;20498;-62
2023/09/09 06:48:24;;;;;;;2.47;2.20;;;;;;;;;;5036861;28;20401;-63
2023/09/09 06:50:50;;;;;;;4.07;2.63;;;;;;;;;;5045507;28;20052;-62
2023/09/09 06:53:15;;;;;;;3.20;2.70;;;;;;;;;;5031242;28;20547;-63
2023/09/09 06:55:43;;;;;;;2.70;2.38;;;;;;;;;;5030011;28;20370;-63
2023/09/09 06:58:08;;;;;;;3.58;2.28;;;;;;;;;;5046296;28;20049;-62
2023/09/09 07:00:34;;;;;;;3.20;2.23;;;;;;;;;;5047518;28;20060;-63
2023/09/09 07:02:59;;;;;;;2.67;2.23;;;;;;;;;;5047416;28;20029;-63
2023/09/09 07:05:24;;;;;;;2.50;2.30;;;;;;;;;;5047873;28;20306;-62
2023/09/09 07:07:50;;;;;;;2.65;2.35;;;;;;;;;;5047678;28;20037;-62
2023/09/09 07:10:15;;;;;;;3.17;2.42;;;;;;;;;;5045817;28;20083;-64
2023/09/09 07:12:42;;;;;;;2.92;2.42;;;;;;;;;;5046551;28;20059;-64
2023/09/09 07:15:07;;;;;;;3.28;2.42;;;;;;;;;;5045205;28;20032;-63
2023/09/09 07:17:33;;;;;;;2.85;2.55;;;;;;;;;;5047534;28;20064;-62
2023/09/09 07:19:58;;;;;;;3.00;2.58;;;;;;;;;;5042757;28;20049;-63
2023/09/09 07:22:23;;;;;;;3.00;2.30;;;;;;;;;;5046313;28;20364;-62
2023/09/09 07:24:48;;;;;;;2.42;2.15;;;;;;;;;;5047129;28;20044;-63
2023/09/09 07:27:14;;;;;;;3.80;2.60;;;;;;;;;;5046286;28;20382;-63
2023/09/09 07:29:40;;;;;;;3.20;2.42;;;;;;;;;;5047098;28;20386;-63
2023/09/09 07:32:05;;;;;;;3.60;1.80;;;;;;;;;;5047447;28;20029;-62
2023/09/09 07:34:30;;;;;;;3.63;2.47;;;;;;;;;;5047250;28;20350;-65
2023/09/09 07:36:56;;;;;;;2.73;2.40;;;;;;;;;;5045717;28;20127;-64
2023/09/09 07:39:21;;;;;;;3.22;2.25;;;;;;;;;;5045535;28;20095;-64
2023/09/09 07:41:46;;;;;;;3.05;2.50;;;;;;;;;;5045756;28;20473;-62
2023/09/09 07:44:11;;;;;;;4.10;2.70;;;;;;;;;;5044320;28;20112;-62
2023/09/09 07:46:37;;;;;;;2.67;2.23;;;;;;;;;;5046365;28;20116;-62
2023/09/09 07:49:02;;;;;;;3.40;2.45;;;;;;;;;;5046392;28;20500;-63
2023/09/09 07:51:28;;;;;;;3.47;2.60;;;;;;;;;;5045787;28;20039;-63
2023/09/09 07:53:53;;;;;;;3.53;2.10;;;;;;;;;;5045241;28;20295;-62
2023/09/09 07:56:18;;;;;;;3.10;2.53;;;;;;;;;;5045526;28;20029;-65
2023/09/09 07:58:43;;;;;;;3.73;2.90;;;;;;;;;;5045288;28;20485;-64
2023/09/09 08:01:09;;;;;;;3.40;2.60;;;;;;;;;;5045674;28;20279;-63
2023/09/09 08:03:34;;;;;;;3.55;2.50;;;;;;;;;;5030452;28;20111;-62
2023/09/09 08:06:02;;;;;;;3.30;2.60;;;;;;;;;;5046939;28;20040;-63
2023/09/09 08:08:28;;;;;;;2.50;2.20;;;;;;;;;;5045492;28;20779;-62
2023/09/09 08:10:53;;;;;;;3.63;2.55;;;;;;;;;;5045783;28;20086;-62
2023/09/09 08:13:18;;;;;;;3.20;2.40;;;;;;;;;;5031729;28;20041;-63
2023/09/09 08:15:43;;;;;;;3.53;2.30;;;;;;;;;;5043799;28;20029;-64
2023/09/09 08:18:09;;;;;;;2.80;2.30;;;;;;;;;;5038128;28;20028;-67
2023/09/09 08:20:34;;;;;;;2.42;2.03;;;;;;;;;;5046526;28;20099;-62
2023/09/09 08:22:59;;;;;;;3.20;2.57;;;;;;;;;;5028504;28;20029;-62
2023/09/09 08:25:24;;;;;;;3.20;2.10;;;;;;;;;;5046931;28;20497;-62
2023/09/09 08:27:50;;;;;;;3.53;2.40;;;;;;;;;;5045558;28;20558;-63
2023/09/09 08:30:17;;;;;;;3.50;2.33;;;;;;;;;;5044400;28;20119;-63
2023/09/09 08:32:42;;;;;;;2.70;2.00;;;;;;;;;;5028302;28;20033;-62
2023/09/09 08:35:07;;;;;;;3.17;2.25;;;;;;;;;;5044766;28;20086;-63
2023/09/09 08:37:32;;;;;;;3.95;2.42;;;;;;;;;;5046650;28;20025;-63
2023/09/09 08:39:58;;;;;;;2.90;2.23;;;;;;;;;;5045274;28;20076;-62
2023/09/09 08:42:43;;;;;;;3.30;2.57;;;;;;;;;;5037043;28;20284;-64
2023/09/09 08:45:33;;;;;;;3.20;2.13;;;;;;;;;;5035066;28;20489;-64
2023/09/09 08:47:58;;;;;;;3.63;2.25;;;;;;;;;;5040606;28;20096;-63
2023/09/09 08:50:26;;;;;;;3.10;2.00;;;;;;;;;;5044642;28;20044;-64
2023/09/09 08:52:55;;;;;;;2.83;2.25;;;;;;;;;;5046321;28;20119;-64
2023/09/09 08:55:20;;;;;;;3.33;2.20;;;;;;;;;;5045963;28;20032;-63
2023/09/09 08:57:46;;;;;;;3.63;2.42;;;;;;;;;;5045042;28;20033;-64
2023/09/09 09:00:12;;;;;;;3.40;2.45;;;;;;;;;;5043809;28;20472;-63
2023/09/09 09:02:38;;;;;;;2.85;1.83;;;;;;;;;;5024141;28;20498;-62
2023/09/09 09:05:03;;;;;;;3.20;1.90;;;;;;;;;;5032014;28;20044;-62
2023/09/09 09:07:28;;;;;;;2.53;1.90;;;;;;;;;;5045772;28;20301;-63
2023/09/09 09:09:54;;;;;;;2.30;1.90;;;;;;;;;;5039575;28;20540;-62
2023/09/09 09:12:19;;;;;;;2.92;2.28;;;;;;;;;;5038980;28;20449;-64
2023/09/09 09:14:48;;;;;;;2.92;2.20;;;;;;;;;;5043926;28;20497;-62
2023/09/09 09:17:20;;;;;;;2.95;2.30;;;;;;;;;;5024587;28;20459;-63
2023/09/09 09:19:45;;;;;;;2.47;2.10;;;;;;;;;;5033199;28;20094;-64
2023/09/09 09:22:13;;;;;;;3.55;2.45;;;;;;;;;;5027742;28;20032;-64
2023/09/09 09:24:44;;;;;;;2.47;1.98;;;;;;;;;;5028126;28;20040;-63
2023/09/09 09:27:10;;;;;;;3.03;1.98;;;;;;;;;;5041876;28;20013;-63
2023/09/09 09:29:39;;;;;;;2.78;1.90;;;;;;;;;;5031029;28;20115;-63
2023/09/09 09:32:05;;;;;;;4.78;2.10;;;;;;;;;;5044232;28;20108;-62
2023/09/09 09:34:33;;;;;;;2.58;1.85;;;;;;;;;;5045716;28;20128;-63
2023/09/09 09:36:58;;;;;;;3.20;2.05;;;;;;;;;;5044116;28;20033;-62
2023/09/09 09:39:24;;;;;;;2.40;1.90;;;;;;;;;;5038981;28;20044;-65
2023/09/09 09:41:49;;;;;;;3.57;2.20;;;;;;;;;;5043618;28;20029;-65
2023/09/09 09:44:18;;;;;;;3.15;2.20;;;;;;;;;;5038905;28;20199;-62
2023/09/09 09:46:43;;;;;;;3.05;2.10;;;;;;;;;;5031205;28;20145;-63
2023/09/09 09:49:09;;;;;;;2.93;2.00;;;;;;;;;;5027837;28;20120;-62
2023/09/09 09:51:43;;;;;;;2.72;2.00;;;;;;;;;;5039731;28;20037;-63
2023/09/09 09:54:08;;;;;;;3.50;1.70;;;;;;;;;;5045325;28;20082;-65
2023/09/09 09:56:34;;;;;;;3.80;2.17;;;;;;;;;;5043876;28;20041;-64
2023/09/09 09:58:59;;;;;;;3.00;2.10;;;;;;;;;;5027128;28;20810;-62
2023/09/09 10:01:24;;;;;;;2.83;2.13;;;;;;;;;;5043531;28;20516;-63
2023/09/09 10:03:55;;;;;;;2.50;1.83;;;;;;;;;;5039217;28;20834;-63
2023/09/09 10:06:27;;;;;;;3.28;2.08;;;;;;;;;;5021971;28;20068;-65
2023/09/09 10:09:19;;;;;;;2.85;1.90;;;;;;;;;;5045101;28;20037;-63
2023/09/09 10:11:53;;;;;;;2.67;1.92;;;;;;;;;;5043310;28;20094;-62
2023/09/09 10:14:20;;;;;;;2.55;2.08;;;;;;;;;;5043881;28;20033;-62
2023/09/09 10:16:45;;;;;;;3.25;1.90;;;;;;;;;;5037584;28;20037;-62
2023/09/09 10:19:10;;;;;;;2.75;2.35;;;;;;;;;;5028906;28;20049;-64
2023/09/09 10:21:36;;;;;;;2.45;1.80;;;;;;;;;;5048321;28;20048;-64
2023/09/09 10:24:01;;;;;;;2.38;1.80;;;;;;;;;;5047416;28;20031;-63
2023/09/09 10:26:27;;;;;;;2.90;2.20;;;;;;;;;;5047294;28;20481;-63
2023/09/09 10:28:52;;;;;;;2.50;1.83;;;;;;;;;;5049152;28;20025;-63
2023/09/09 10:31:17;;;;;;;2.50;1.90;;;;;;;;;;5049374;28;20029;-62
2023/09/09 10:33:45;;;;;;;2.57;1.83;;;;;;;;;;5046472;28;20048;-64
2023/09/09 10:36:10;;;;;;;3.28;2.00;;;;;;;;;;5047212;28;20124;-63
2023/09/09 10:38:35;;;;;;;3.20;1.87;;;;;;;;;;5048447;28;20608;-64
2023/09/09 10:41:01;;;;;;;2.22;1.85;;;;;;;;;;5046982;28;20274;-63
2023/09/09 10:43:26;;;;;;;3.15;2.00;;;;;;;;;;5043093;28;20048;-62
2023/09/09 10:45:51;;;;;;;1.87;1.50;;;;;;;;;;5038814;28;20039;-62
2023/09/09 10:48:21;;;;;;;2.57;1.83;;;;;;;;;;5047218;28;20060;-62
2023/09/09 10:50:47;;;;;;;2.33;1.75;;;;;;;;;;5046323;28;20832;-62
2023/09/09 10:53:12;;;;;;;2.60;2.00;;;;;;;;;;5047790;28;20009;-62
2023/09/09 10:55:37;;;;;;;2.72;1.65;;;;;;;;;;5047971;28;20017;-61
2023/09/09 10:58:05;;;;;;;2.03;1.40;;;;;;;;;;5048110;28;20433;-62
2023/09/09 11:00:38;;;;;;;2.15;1.52;;;;;;;;;;5047789;28;20068;-65
2023/09/09 11:03:08;;;;;;;2.20;1.88;;;;;;;;;;5041656;28;20401;-64
2023/09/09 11:05:33;;;;;;;4.68;1.70;;;;;;;;;;5046355;28;20466;-64
2023/09/09 11:07:58;;;;;;;2.70;1.67;;;;;;;;;;5046100;28;20027;-64
2023/09/09 11:10:23;;;;;;;2.10;1.60;;;;;;;;;;5047958;28;20517;-62
2023/09/09 11:12:50;;;;;;;2.10;1.52;;;;;;;;;;5042675;28;20915;-61
2023/09/09 11:15:15;;;;;;;2.70;1.95;;;;;;;;;;5026451;28;20037;-62
2023/09/09 11:17:42;;;;;;;3.17;2.10;;;;;;;;;;5026139;28;20466;-66
2023/09/09 11:20:11;;;;;;;2.80;1.50;;;;;;;;;;5029735;28;20053;-65
2023/09/09 11:22:37;;;;;;;3.57;2.00;;;;;;;;;;5046289;28;20033;-63
2023/09/09 11:25:03;;;;;;;2.30;1.67;;;;;;;;;;5047653;28;20418;-63
2023/09/09 11:27:28;;;;;;;2.17;1.60;;;;;;;;;;5029613;28;20403;-63
2023/09/09 11:29:53;;;;;;;2.42;1.58;;;;;;;;;;5043032;28;20845;-64
2023/09/09 11:32:25;;;;;;;3.67;1.90;;;;;;;;;;5047185;28;20036;-64
2023/09/09 11:34:51;;;;;;;2.72;1.50;;;;;;;;;;5045986;28;20282;-65
2023/09/09 11:37:16;;;;;;;2.70;1.67;;;;;;;;;;5046084;28;20094;-62
2023/09/09 11:39:42;;;;;;;2.53;1.50;;;;;;;;;;5047508;28;20087;-64
2023/09/09 11:42:07;;;;;;;2.83;1.70;;;;;;;;;;5036684;28;20059;-64
2023/09/09 11:44:39;;;;;;;2.13;1.40;;;;;;;;;;5043429;28;20275;-63
2023/09/09 11:47:05;;;;;;;2.75;1.60;;;;;;;;;;5025669;28;20056;-63
2023/09/09 11:49:30;;;;;;;2.20;1.50;;;;;;;;;;5027646;28;20118;-63
2023/09/09 11:51:55;;;;;;;2.73;1.40;;;;;;;;;;5040860;28;20061;-63
2023/09/09 11:54:20;;;;;;;2.10;1.60;;;;;;;;;;5028998;28;20276;-64
2023/09/09 11:56:46;;;;;;;2.43;1.80;;;;;;;;;;5045672;28;20040;-63
2023/09/09 11:59:11;;;;;;;2.20;1.50;;;;;;;;;;5040010;28;20843;-64
2023/09/09 12:01:43;;;;;;;3.03;1.73;;;;;;;;;;5037533;28;20401;-63
2023/09/09 12:04:08;;;;;;;2.20;1.60;;;;;;;;;;5045887;28;20268;-63
2023/09/09 12:06:34;;;;;;;2.00;1.42;;;;;;;;;;5045617;28;20178;-62
2023/09/09 12:08:59;;;;;;;2.28;1.60;;;;;;;;;;5045837;28;20062;-63
2023/09/09 12:11:24;;;;;;;2.10;1.70;;;;;;;;;;5040094;28;20452;-64
2023/09/09 12:13:50;;;;;;;2.87;1.50;;;;;;;;;;5044834;28;20044;-62
2023/09/09 12:16:15;;;;;;;2.37;1.57;;;;;;;;;;5038898;28;20362;-63
2023/09/09 12:18:40;;;;;;;1.98;1.45;;;;;;;;;;5045446;28;20181;-62
2023/09/09 12:21:09;;;;;;;1.97;1.53;;;;;;;;;;5046535;28;20028;-65
2023/09/09 12:23:35;;;;;;;1.93;1.40;;;;;;;;;;5044822;28;20298;-62
2023/09/09 12:26:27;;;;;;;2.28;1.60;;;;;;;;;;5046496;28;20382;-65
2023/09/09 12:29:05;;;;;;;2.13;1.45;;;;;;;;;;5029642;28;20029;-63
2023/09/09 12:31:36;;;;;;;3.03;1.35;;;;;;;;;;5035163;28;20527;-63
2023/09/09 12:34:01;;;;;;;2.65;1.40;;;;;;;;;;5044042;28;20065;-63
2023/09/09 12:36:26;;;;;;;2.13;1.52;;;;;;;;;;5045067;28;20460;-64
2023/09/09 12:38:52;;;;;;;2.30;1.30;;;;;;;;;;5040002;28;20098;-63
2023/09/09 12:41:20;;;;;;;2.30;1.40;;;;;;;;;;5032367;28;20063;-64
2023/09/09 12:43:46;;;;;;;2.63;1.50;;;;;;;;;;5045825;28;20029;-64
2023/09/09 12:46:15;;;;;;;2.30;1.30;;;;;;;;;;5034615;28;20473;-64
2023/09/09 12:48:53;;;;;;;2.50;1.50;;;;;;;;;;5030964;28;20418;-63
2023/09/09 12:51:18;;;;;;;1.50;1.33;;;;;;;;;;5032130;28;20397;-64
2023/09/09 12:53:43;;;;;;;2.20;1.23;;;;;;;;;;5045924;28;20037;-64
2023/09/09 12:56:09;;;;;;;2.10;1.30;;;;;;;;;;5046037;28;20111;-65
2023/09/09 13:01:17;;;;;;;1.95;1.30;;;;;;;;;;5045075;28;20575;-63
2023/09/09 13:03:43;;;;;;;2.10;1.40;;;;;;;;;;5042247;28;20017;-63
2023/09/09 13:06:08;;;;;;;4.07;1.48;;;;;;;;;;5044313;28;20105;-64
2023/09/09 13:08:34;;;;;;;3.08;1.45;;;;;;;;;;5046028;28;20397;-63
2023/09/09 13:10:59;;;;;;;1.95;1.25;;;;;;;;;;5045259;28;20048;-62
2023/09/09 13:13:25;;;;;;;2.38;1.40;;;;;;;;;;5043682;28;20020;-64
2023/09/09 13:15:50;;;;;;;2.07;1.40;;;;;;;;;;5032162;28;20025;-64
2023/09/09 13:18:16;;;;;;;1.70;1.20;;;;;;;;;;5045665;28;20377;-63
2023/09/09 13:20:41;;;;;;;1.75;1.20;;;;;;;;;;5038568;28;20121;-65
2023/09/09 13:23:07;;;;;;;2.40;1.33;;;;;;;;;;5043371;28;20115;-63
2023/09/09 13:25:32;;;;;;;2.33;1.30;;;;;;;;;;5045184;28;20139;-66
2023/09/09 13:27:59;;;;;;;2.60;1.63;;;;;;;;;;5045438;28;20319;-62
2023/09/09 13:30:24;;;;;;;1.95;1.17;;;;;;;;;;5045557;28;20419;-65
2023/09/09 13:32:49;;;;;;;1.75;1.35;;;;;;;;;;5039155;28;20025;-62
2023/09/09 13:35:14;;;;;;;1.87;1.17;;;;;;;;;;5044994;28;20517;-62
2023/09/09 13:37:40;;;;;;;2.70;1.33;;;;;;;;;;5045578;28;20025;-62
2023/09/09 13:40:05;;;;;;;1.90;1.37;;;;;;;;;;5045116;28;20812;-63
2023/09/09 13:42:31;;;;;;;2.17;1.30;;;;;;;;;;5044754;28;20481;-65
2023/09/09 13:44:56;;;;;;;2.38;1.25;;;;;;;;;;5037232;28;20058;-64
2023/09/09 13:47:21;;;;;;;2.17;1.00;;;;;;;;;;5029195;28;20035;-63
2023/09/09 13:49:46;;;;;;;3.58;1.38;;;;;;;;;;5035746;28;20105;-64
2023/09/09 13:52:12;;;;;;;1.85;1.30;;;;;;;;;;5032109;28;20017;-64
2023/09/09 13:54:37;;;;;;;2.07;1.20;;;;;;;;;;5045236;28;20067;-64
2023/09/09 13:57:03;;;;;;;2.20;1.20;;;;;;;;;;5044876;28;20785;-62
2023/09/09 13:59:29;;;;;;;2.63;1.25;;;;;;;;;;5044888;28;20523;-63
2023/09/09 14:01:54;;;;;;;1.95;1.30;;;;;;;;;;5040339;28;20016;-64
2023/09/09 14:04:19;;;;;;;2.17;1.27;;;;;;;;;;5043550;28;20032;-62
2023/09/09 14:06:44;;;;;;;2.03;1.37;;;;;;;;;;5045184;28;20013;-63
2023/09/09 14:09:10;;;;;;;1.77;1.27;;;;;;;;;;5044667;28;20264;-63
2023/09/09 14:11:35;;;;;;;2.15;1.35;;;;;;;;;;5044580;28;20013;-63
2023/09/09 14:14:00;;;;;;;1.80;1.30;;;;;;;;;;5032823;28;20078;-65
2023/09/09 14:16:26;;;;;;;3.07;1.33;;;;;;;;;;5027214;28;20508;-64
2023/09/09 14:18:51;;;;;;;1.40;1.00;;;;;;;;;;5043216;28;20501;-64
2023/09/09 14:21:19;;;;;;;2.13;1.25;;;;;;;;;;5044839;28;20385;-63
2023/09/09 14:23:44;;;;;;;2.58;1.05;;;;;;;;;;5043210;28;20040;-62
2023/09/09 14:26:09;;;;;;;1.77;1.20;;;;;;;;;;5044588;28;20520;-64
2023/09/09 14:28:34;;;;;;;2.63;1.30;;;;;;;;;;5044441;28;20135;-63
2023/09/09 14:30:59;;;;;;;1.77;1.00;;;;;;;;;;5044716;28;20254;-63
2023/09/09 14:33:25;;;;;;;2.87;1.30;;;;;;;;;;5043153;28;20651;-64
2023/09/09 14:35:50;;;;;;;1.97;1.33;;;;;;;;;;5044796;28;20409;-64
2023/09/09 14:38:15;;;;;;;1.47;1.17;;;;;;;;;;5036890;28;20375;-64